Time;durP1;ratioP1;P1;durP2;ratioP2;P2;SDS_P1;SDS_P2;PMS_P1;PMS_P2;Temp;Humidity;BMP_temperature;BMP_pressure;BME280_temperature;BME280_humidity;BME280_pressure;Samples;Min_cycle;Max_cycle;Signal;HPM_P1;HPM_P2
2021/12/21 00:00:36;;;;;;;14.48;5.93;;;7.00;81.50;;;;;;5015292;28;20527;-82
2021/12/21 00:03:02;;;;;;;17.13;5.70;;;7.00;81.60;;;;;;5015469;28;20038;-81
2021/12/21 00:05:29;;;;;;;15.25;5.85;;;7.00;81.60;;;;;;5015381;28;20030;-81
2021/12/21 00:07:58;;;;;;;14.57;6.40;;;7.00;81.40;;;;;;5015042;28;20061;-81
2021/12/21 00:10:26;;;;;;;13.57;5.65;;;7.00;81.40;;;;;;5015395;28;20448;-81
2021/12/21 00:15:35;;;;;;;16.90;5.82;;;7.10;81.30;;;;;;5015149;28;20030;-81
2021/12/21 00:18:13;;;;;;;17.00;5.45;;;7.10;81.10;;;;;;5015226;28;20041;-81
2021/12/21 00:20:59;;;;;;;16.95;5.53;;;7.00;81.50;;;;;;5015055;28;20026;-81
2021/12/21 00:26:21;;;;;;;15.82;5.95;;;7.00;80.80;;;;;;5018792;28;20034;-81
2021/12/21 00:28:56;;;;;;;14.65;6.20;;;7.00;80.70;;;;;;5014767;28;20018;-81
2021/12/21 00:31:23;;;;;;;13.95;5.80;;;6.90;80.70;;;;;;5014695;28;20580;-81
2021/12/21 00:33:49;;;;;;;18.77;6.85;;;6.90;80.80;;;;;;5014685;28;20026;-82
2021/12/21 00:36:16;;;;;;;12.63;5.70;;;6.90;80.90;;;;;;5022400;28;20028;-82
2021/12/21 00:38:43;;;;;;;13.30;6.07;;;6.90;80.80;;;;;;5024435;28;20052;-81
2021/12/21 00:41:09;;;;;;;16.40;6.63;;;6.90;80.80;;;;;;5015632;28;20033;-81
2021/12/21 00:43:35;;;;;;;16.80;6.43;;;6.90;80.70;;;;;;5014931;28;20022;-81
2021/12/21 00:46:01;;;;;;;14.48;5.38;;;6.80;80.70;;;;;;5014418;28;20026;-81
2021/12/21 00:48:29;;;;;;;18.67;6.13;;;6.80;80.80;;;;;;5014479;28;20025;-81
2021/12/21 00:50:57;;;;;;;13.55;6.07;;;6.80;80.60;;;;;;5014330;28;20093;-81
2021/12/21 00:53:23;;;;;;;14.05;6.25;;;6.70;80.80;;;;;;5014118;28;20061;-81
2021/12/21 00:55:49;;;;;;;14.32;6.10;;;6.70;80.80;;;;;;5013754;28;20126;-81
2021/12/21 00:58:16;;;;;;;16.45;6.28;;;6.70;80.90;;;;;;5014321;28;20486;-80
2021/12/21 01:00:42;;;;;;;12.95;6.32;;;6.70;80.90;;;;;;5014134;28;20038;-81
2021/12/21 01:03:11;;;;;;;15.32;5.90;;;6.70;81.00;;;;;;5014042;28;20032;-80
2021/12/21 01:06:10;;;;;;;15.13;6.10;;;6.70;81.00;;;;;;5014205;28;20038;-80
2021/12/21 01:08:28;;;;;;;14.10;5.78;;;6.70;81.00;;;;;;5013936;28;20049;-80
2021/12/21 01:11:11;;;;;;;16.38;5.75;;;6.80;80.90;;;;;;5014263;28;20041;-82
2021/12/21 01:14:51;;;;;;;13.70;5.90;;;6.80;80.80;;;;;;5014287;28;20520;-82
2021/12/21 01:16:34;;;;;;;13.30;6.30;;;6.80;80.70;;;;;;5013397;28;20033;-81
2021/12/21 01:21:34;;;;;;;15.32;6.50;;;6.80;80.30;;;;;;5014150;28;20125;-81
2021/12/21 01:24:23;;;;;;;16.20;6.38;;;6.80;80.30;;;;;;5014236;28;20034;-81
2021/12/21 01:30:18;;;;;;;15.02;6.00;;;6.80;80.30;;;;;;5014036;28;20057;-81
2021/12/21 01:37:42;;;;;;;15.75;6.68;;;6.70;80.10;;;;;;5013900;28;20100;-82
2021/12/21 01:50:54;;;;;;;18.13;6.18;;;6.50;80.00;;;;;;5013757;28;20633;-82
2021/12/21 01:53:21;;;;;;;14.13;6.72;;;6.50;79.90;;;;;;5013212;28;20041;-82
2021/12/21 01:55:47;;;;;;;11.00;5.78;;;6.40;79.90;;;;;;5013498;28;20436;-82
2021/12/21 01:58:12;;;;;;;13.48;6.35;;;6.40;80.00;;;;;;5013818;28;20359;-82
2021/12/21 02:00:39;;;;;;;15.65;6.45;;;6.40;80.10;;;;;;5013438;28;20029;-81
2021/12/21 02:03:06;;;;;;;15.70;6.65;;;6.40;80.00;;;;;;5013943;28;20022;-81
2021/12/21 02:05:31;;;;;;;15.65;6.28;;;6.40;79.90;;;;;;5013493;28;20037;-82
2021/12/21 02:07:57;;;;;;;14.40;6.60;;;6.40;79.80;;;;;;5015877;28;20473;-81
2021/12/21 02:10:23;;;;;;;15.85;6.97;;;6.40;79.80;;;;;;5017170;28;20083;-80
2021/12/21 02:12:49;;;;;;;13.70;6.03;;;6.30;79.80;;;;;;5017559;28;20032;-80
2021/12/21 02:15:15;;;;;;;12.85;6.28;;;6.20;80.00;;;;;;5017536;28;20113;-81
2021/12/21 02:20:50;;;;;;;17.88;6.13;;;6.10;80.20;;;;;;5014852;28;20025;-82
2021/12/21 02:23:27;;;;;;;15.48;7.00;;;5.90;80.30;;;;;;5017048;28;20544;-84
2021/12/21 02:28:34;;;;;;;17.80;6.60;;;5.90;80.70;;;;;;5017106;28;20032;-85
2021/12/21 02:30:59;;;;;;;17.52;7.13;;;5.90;80.80;;;;;;5018031;28;20030;-84
2021/12/21 02:33:26;;;;;;;21.83;7.93;;;5.90;80.80;;;;;;5018538;28;20028;-81
2021/12/21 02:35:53;;;;;;;20.10;9.63;;;5.80;80.70;;;;;;5017195;28;20026;-84
2021/12/21 02:38:19;;;;;;;20.38;9.40;;;5.80;80.80;;;;;;5016798;28;20026;-83
2021/12/21 02:40:46;;;;;;;20.55;9.70;;;5.70;81.10;;;;;;5016913;28;20022;-83
2021/12/21 02:43:13;;;;;;;23.48;9.85;;;5.70;81.20;;;;;;5017097;28;20033;-83
2021/12/21 02:45:40;;;;;;;22.40;9.88;;;5.70;81.00;;;;;;5016586;28;20030;-83
2021/12/21 02:48:07;;;;;;;20.50;9.40;;;5.70;80.80;;;;;;5016957;28;20026;-83
2021/12/21 02:50:33;;;;;;;21.92;8.57;;;5.70;80.80;;;;;;5016519;28;20462;-82
2021/12/21 02:52:59;;;;;;;17.45;9.10;;;5.80;80.70;;;;;;5016394;28;20493;-82
2021/12/21 02:55:26;;;;;;;19.15;8.60;;;5.80;80.60;;;;;;5016784;28;20030;-82
2021/12/21 02:57:52;;;;;;;18.65;7.93;;;5.80;80.70;;;;;;5016223;28;20405;-82
2021/12/21 03:00:18;;;;;;;17.52;7.30;;;5.90;80.70;;;;;;5016833;28;20022;-84
2021/12/21 03:02:44;;;;;;;21.10;7.53;;;5.90;80.50;;;;;;5016373;28;20032;-85
2021/12/21 03:05:10;;;;;;;13.52;7.32;;;5.90;80.30;;;;;;5016585;28;20096;-85
2021/12/21 03:08:03;;;;;;;16.40;7.00;;;5.90;80.20;;;;;;5016459;28;20038;-85
2021/12/21 03:10:26;;;;;;;15.07;7.25;;;6.00;80.20;;;;;;5016365;28;20042;-85
2021/12/21 03:15:23;;;;;;;16.55;6.47;;;5.90;80.40;;;;;;5016371;28;20481;-86
2021/12/21 03:17:50;;;;;;;18.50;7.10;;;5.90;80.00;;;;;;5016329;28;20495;-86
2021/12/21 03:20:17;;;;;;;12.15;6.22;;;5.90;80.10;;;;;;5015451;28;20397;-86
2021/12/21 03:22:42;;;;;;;21.10;7.43;;;5.90;80.10;;;;;;5016077;28;20049;-86
2021/12/21 03:25:08;;;;;;;17.83;7.63;;;6.00;80.10;;;;;;5016333;28;20057;-87
2021/12/21 03:27:34;;;;;;;17.95;6.90;;;6.00;80.10;;;;;;5016538;28;20026;-88
2021/12/21 03:30:00;;;;;;;19.35;7.90;;;6.00;79.90;;;;;;5021110;28;20076;-87
2021/12/21 03:32:26;;;;;;;18.98;7.43;;;5.90;79.90;;;;;;5016038;28;20041;-87
2021/12/21 03:34:51;;;;;;;19.85;7.85;;;5.90;80.10;;;;;;5016054;28;20121;-85
2021/12/21 03:37:17;;;;;;;22.13;8.15;;;6.00;80.30;;;;;;5016110;28;20037;-86
2021/12/21 03:39:44;;;;;;;18.10;8.23;;;6.00;80.30;;;;;;5015937;28;20520;-85
2021/12/21 03:42:12;;;;;;;15.85;7.45;;;6.00;80.40;;;;;;5016072;28;20108;-86
2021/12/21 03:44:38;;;;;;;20.42;8.05;;;6.00;80.40;;;;;;5015575;28;20388;-85
2021/12/21 03:47:04;;;;;;;18.75;7.40;;;5.90;80.40;;;;;;5015851;28;20026;-85
2021/12/21 03:52:18;;;;;;;18.95;8.32;;;6.00;80.60;;;;;;5015595;28;20026;-86
2021/12/21 03:54:51;;;;;;;15.52;8.15;;;5.90;80.70;;;;;;5014743;28;20104;-86
2021/12/21 03:57:17;;;;;;;14.90;7.50;;;5.80;81.00;;;;;;5015655;28;20034;-85
2021/12/21 03:59:44;;;;;;;20.55;8.32;;;5.70;81.40;;;;;;5015731;28;20100;-85
2021/12/21 04:02:12;;;;;;;19.05;8.15;;;5.60;81.70;;;;;;5015513;28;20022;-87
2021/12/21 04:04:39;;;;;;;15.55;7.95;;;5.60;82.00;;;;;;5015010;28;20034;-85
2021/12/21 04:07:05;;;;;;;20.08;8.05;;;5.60;82.00;;;;;;5015070;28;20034;-85
2021/12/21 04:09:31;;;;;;;21.55;8.73;;;5.60;82.20;;;;;;5015334;28;20025;-85
2021/12/21 04:11:57;;;;;;;19.77;9.18;;;5.60;82.30;;;;;;5015405;28;20030;-86
2021/12/21 04:14:23;;;;;;;19.10;8.82;;;5.60;82.50;;;;;;5015001;28;20060;-85
2021/12/21 04:16:49;;;;;;;18.13;8.38;;;5.50;82.80;;;;;;5014930;28;20030;-85
2021/12/21 04:19:17;;;;;;;16.35;8.32;;;5.40;83.00;;;;;;5015065;28;20060;-85
2021/12/21 04:21:42;;;;;;;18.92;8.07;;;5.40;83.20;;;;;;5015160;28;20120;-85
2021/12/21 04:24:08;;;;;;;14.25;8.25;;;5.50;83.20;;;;;;5016443;28;20042;-85
2021/12/21 04:26:34;;;;;;;14.00;7.60;;;5.60;83.10;;;;;;5017277;28;20113;-84
2021/12/21 04:29:00;;;;;;;16.13;7.40;;;5.60;82.90;;;;;;5014956;28;20394;-84
2021/12/21 04:31:25;;;;;;;14.82;7.25;;;5.70;82.80;;;;;;5014580;28;20038;-83
2021/12/21 04:33:51;;;;;;;21.30;6.93;;;5.70;82.70;;;;;;5014704;28;20466;-83
2021/12/21 04:36:17;;;;;;;14.65;7.60;;;5.70;82.50;;;;;;5014868;28;20159;-83
2021/12/21 04:38:47;;;;;;;17.50;8.02;;;5.80;82.40;;;;;;5014873;28;20026;-83
2021/12/21 04:41:26;;;;;;;18.55;8.27;;;5.80;82.20;;;;;;5014725;28;20037;-82
2021/12/21 04:43:53;;;;;;;17.65;7.38;;;5.70;82.20;;;;;;5014554;28;20025;-82
2021/12/21 04:46:19;;;;;;;17.35;8.00;;;5.70;82.30;;;;;;5014545;28;20354;-82
2021/12/21 04:48:45;;;;;;;20.08;8.55;;;5.70;82.30;;;;;;5014648;28;20033;-81
2021/12/21 04:51:10;;;;;;;17.65;9.00;;;5.70;82.10;;;;;;5014462;28;20507;-83
2021/12/21 04:53:36;;;;;;;18.38;8.55;;;5.70;82.00;;;;;;5014301;28;20125;-83
2021/12/21 04:56:05;;;;;;;18.58;8.05;;;5.60;81.90;;;;;;5014188;28;20032;-83
2021/12/21 04:58:31;;;;;;;14.30;8.20;;;5.60;82.10;;;;;;5014510;28;20022;-80
2021/12/21 05:00:58;;;;;;;16.20;8.23;;;5.50;82.10;;;;;;5014252;28;20038;-81
2021/12/21 05:03:24;;;;;;;15.80;7.82;;;5.50;82.20;;;;;;5014371;28;20382;-79
2021/12/21 05:05:50;;;;;;;18.45;7.68;;;5.50;82.30;;;;;;5014077;28;20059;-78
2021/12/21 05:08:23;;;;;;;15.27;7.03;;;5.50;82.40;;;;;;5014496;28;20030;-79
2021/12/21 05:10:54;;;;;;;15.23;8.02;;;5.50;82.30;;;;;;5014331;28;20046;-80
2021/12/21 05:13:23;;;;;;;19.60;8.00;;;5.50;82.20;;;;;;5013849;28;20084;-80
2021/12/21 05:15:48;;;;;;;19.65;8.07;;;5.40;82.30;;;;;;5014243;28;20429;-79
2021/12/21 05:18:17;;;;;;;14.23;7.32;;;5.40;82.20;;;;;;5013801;28;20033;-80
2021/12/21 05:20:43;;;;;;;16.23;8.30;;;5.40;82.30;;;;;;5014303;28;20038;-80
2021/12/21 05:23:10;;;;;;;19.77;8.18;;;5.40;82.30;;;;;;5013999;28;20030;-81
2021/12/21 05:25:36;;;;;;;16.30;7.15;;;5.40;82.30;;;;;;5021411;28;20034;-81
2021/12/21 05:28:03;;;;;;;15.80;6.93;;;5.40;82.30;;;;;;5013941;28;20026;-81
2021/12/21 05:30:29;;;;;;;14.90;7.25;;;5.40;82.40;;;;;;5013893;28;20107;-81
2021/12/21 05:32:56;;;;;;;15.75;7.50;;;5.40;83.10;;;;;;5013763;28;20462;-81
2021/12/21 05:35:23;;;;;;;17.15;7.57;;;5.50;82.90;;;;;;5014028;28;20037;-82
2021/12/21 05:37:52;;;;;;;16.60;7.60;;;5.50;82.20;;;;;;5013581;28;20030;-81
2021/12/21 05:40:19;;;;;;;15.18;7.82;;;5.40;82.00;;;;;;5013571;28;20405;-82
2021/12/21 05:42:46;;;;;;;16.90;7.47;;;5.50;82.10;;;;;;5015740;28;20026;-81
2021/12/21 05:45:16;;;;;;;15.85;7.35;;;5.40;81.80;;;;;;5018066;28;20084;-81
2021/12/21 05:47:41;;;;;;;19.05;8.95;;;5.30;81.90;;;;;;5017730;28;20488;-82
2021/12/21 05:50:15;;;;;;;16.55;8.10;;;5.30;82.10;;;;;;5017930;28;20059;-82
2021/12/21 05:52:41;;;;;;;21.58;7.90;;;5.30;82.30;;;;;;5017265;28;20041;-82
2021/12/21 05:55:07;;;;;;;14.88;7.25;;;5.30;82.30;;;;;;5017686;28;20030;-83
2021/12/21 05:57:33;;;;;;;14.98;7.07;;;5.30;82.50;;;;;;5017582;28;20400;-81
2021/12/21 05:59:59;;;;;;;16.67;7.63;;;5.30;82.70;;;;;;5017579;28;20038;-80
2021/12/21 06:02:25;;;;;;;15.30;7.50;;;5.30;82.70;;;;;;5017190;28;20026;-83
2021/12/21 06:04:50;;;;;;;19.83;8.27;;;5.30;82.60;;;;;;5017551;28;20055;-84
2021/12/21 06:07:16;;;;;;;20.08;8.38;;;5.30;82.70;;;;;;5017715;28;20022;-86
2021/12/21 06:09:45;;;;;;;16.35;7.35;;;5.20;83.00;;;;;;5017761;28;20044;-88
2021/12/21 06:12:33;;;;;;;14.60;7.93;;;5.20;83.20;;;;;;5017647;28;20033;-83
2021/12/21 06:23:17;;;;;;;16.80;7.97;;;5.20;83.00;;;;;;5028956;28;20077;-84
2021/12/21 06:25:52;;;;;;;15.30;7.68;;;5.20;83.00;;;;;;5017217;28;20026;-85
2021/12/21 06:28:18;;;;;;;18.63;8.30;;;5.20;83.10;;;;;;5017059;28;20029;-86
2021/12/21 06:30:44;;;;;;;19.10;9.18;;;5.10;83.10;;;;;;5015791;28;20038;-86
2021/12/21 06:33:10;;;;;;;22.92;8.10;;;5.00;83.20;;;;;;5015753;28;20108;-83
2021/12/21 06:35:37;;;;;;;19.85;8.90;;;5.00;85.90;;;;;;5015942;28;20030;-82
2021/12/21 06:38:04;;;;;;;17.63;7.63;;;5.00;88.90;;;;;;5016031;28;20389;-83
2021/12/21 06:40:31;;;;;;;12.50;5.70;;;5.00;90.10;;;;;;5016028;28;20549;-86
2021/12/21 06:43:00;;;;;;;14.82;6.82;;;5.20;91.30;;;;;;5016522;28;20424;-85
2021/12/21 06:45:54;;;;;;;19.88;8.05;;;5.40;92.00;;;;;;5029842;28;20034;-88
2021/12/21 06:53:51;;;;;;;15.73;7.45;;;5.60;88.70;;;;;;5038127;28;20049;-85
2021/12/21 06:56:17;;;;;;;16.05;8.27;;;5.70;88.70;;;;;;5037985;28;20029;-87
2021/12/21 06:58:43;;;;;;;17.10;8.52;;;5.70;88.40;;;;;;5036670;28;20025;-87
2021/12/21 07:01:09;;;;;;;17.02;8.75;;;5.60;86.50;;;;;;5036949;28;20030;-89
2021/12/21 07:03:36;;;;;;;17.80;9.00;;;5.60;85.90;;;;;;5036132;28;20092;-78
2021/12/21 07:06:04;;;;;;;15.15;8.07;;;5.50;86.70;;;;;;5035357;28;20115;-89
2021/12/21 07:08:33;;;;;;;19.85;9.60;;;5.50;86.60;;;;;;5037194;28;20021;-92
2021/12/21 07:11:23;;;;;;;17.70;8.35;;;5.60;87.70;;;;;;5037466;28;20045;-91
2021/12/21 07:19:20;;;;;;;22.23;9.77;;;5.70;89.00;;;;;;5037902;28;20029;-90
2021/12/21 07:21:45;;;;;;;20.75;9.52;;;5.70;87.40;;;;;;5041333;28;20025;-89
2021/12/21 07:27:34;;;;;;;16.40;6.97;;;5.80;87.70;;;;;;5039830;28;20036;-91
2021/12/21 07:29:59;;;;;;;22.58;8.45;;;6.00;90.20;;;;;;5035885;28;20542;-79
2021/12/21 07:32:25;;;;;;;19.15;8.57;;;6.10;90.50;;;;;;5028007;28;20251;-80
2021/12/21 07:34:51;;;;;;;21.42;8.43;;;6.20;90.30;;;;;;5031265;28;20030;-81
2021/12/21 07:37:16;;;;;;;17.10;8.20;;;6.30;90.20;;;;;;5026068;28;20365;-80
2021/12/21 07:39:42;;;;;;;18.40;9.68;;;6.30;89.70;;;;;;5034855;28;20022;-79
2021/12/21 07:42:08;;;;;;;15.68;7.43;;;6.40;89.50;;;;;;5033367;28;20548;-80
2021/12/21 07:44:33;;;;;;;14.95;8.35;;;6.40;88.60;;;;;;5033342;28;20026;-81
2021/12/21 07:46:59;;;;;;;20.40;9.27;;;6.30;86.40;;;;;;5033758;28;20029;-80
2021/12/21 07:49:25;;;;;;;16.10;8.07;;;6.30;86.70;;;;;;5027993;28;20021;-81
2021/12/21 07:51:51;;;;;;;16.85;8.00;;;6.20;87.10;;;;;;5033634;28;20053;-80
2021/12/21 07:54:17;;;;;;;17.10;7.40;;;6.30;86.10;;;;;;5033768;28;20464;-79
2021/12/21 07:56:44;;;;;;;19.88;9.50;;;6.40;88.50;;;;;;5032578;28;20029;-81
2021/12/21 07:59:11;;;;;;;19.15;9.23;;;6.40;87.70;;;;;;5033550;28;20053;-78
2021/12/21 08:01:37;;;;;;;20.25;8.20;;;6.40;89.90;;;;;;5033658;28;20105;-79
2021/12/21 08:04:03;;;;;;;17.20;9.00;;;6.40;91.00;;;;;;5033675;28;20022;-78
2021/12/21 08:06:32;;;;;;;19.58;7.85;;;6.40;90.10;;;;;;5031706;28;20026;-83
2021/12/21 08:08:58;;;;;;;15.93;8.27;;;6.40;89.90;;;;;;5032517;28;20021;-82
2021/12/21 08:14:03;;;;;;;20.27;10.40;;;6.40;90.00;;;;;;5033306;28;20029;-80
2021/12/21 08:16:29;;;;;;;15.15;7.80;;;6.30;86.00;;;;;;5033929;28;20108;-81
2021/12/21 08:18:55;;;;;;;19.38;10.45;;;6.20;88.50;;;;;;5030340;28;20422;-80
2021/12/21 08:21:23;;;;;;;20.08;10.80;;;6.20;87.70;;;;;;5029279;28;20034;-78
2021/12/21 08:23:49;;;;;;;20.40;10.23;;;6.00;85.60;;;;;;5027234;28;20026;-78
2021/12/21 08:26:14;;;;;;;20.60;9.90;;;5.90;85.30;;;;;;5027954;28;20082;-78
2021/12/21 08:28:40;;;;;;;21.17;10.45;;;5.80;85.40;;;;;;5029857;28;20021;-79
2021/12/21 08:31:10;;;;;;;16.48;10.43;;;5.80;85.00;;;;;;5030456;28;20041;-78
2021/12/21 08:33:36;;;;;;;18.80;11.05;;;5.70;85.00;;;;;;5032294;28;20487;-78
2021/12/21 08:36:03;;;;;;;21.05;11.23;;;5.50;84.90;;;;;;5031539;28;20044;-78
2021/12/21 08:38:31;;;;;;;21.05;11.38;;;5.50;85.30;;;;;;5033299;28;20048;-78
2021/12/21 08:40:58;;;;;;;20.90;11.27;;;5.40;85.20;;;;;;5029932;28;20536;-79
2021/12/21 08:43:27;;;;;;;21.42;11.63;;;5.40;85.70;;;;;;5033243;28;20037;-78
2021/12/21 08:45:52;;;;;;;20.70;10.73;;;5.40;85.60;;;;;;5033495;28;20053;-78
2021/12/21 08:48:19;;;;;;;22.33;11.57;;;5.30;85.30;;;;;;5033233;28;20421;-79
2021/12/21 08:50:46;;;;;;;20.75;11.38;;;5.30;85.50;;;;;;5033158;28;20045;-78
2021/12/21 08:53:13;;;;;;;21.90;11.95;;;5.30;86.00;;;;;;5033137;28;20492;-79
2021/12/21 08:55:41;;;;;;;24.27;12.52;;;5.30;85.80;;;;;;5032837;28;20034;-79
2021/12/21 08:58:07;;;;;;;23.65;13.05;;;5.30;86.10;;;;;;5033267;28;20048;-79
2021/12/21 09:00:32;;;;;;;20.20;10.80;;;5.20;86.60;;;;;;5032498;28;20120;-79
2021/12/21 09:02:58;;;;;;;22.27;13.93;;;5.20;86.40;;;;;;5033096;28;20104;-78
2021/12/21 09:05:27;;;;;;;27.20;13.75;;;5.10;86.10;;;;;;5032020;28;20120;-77
2021/12/21 09:07:54;;;;;;;25.08;13.48;;;5.10;86.50;;;;;;5032769;28;20030;-79
2021/12/21 09:10:21;;;;;;;26.95;14.23;;;5.10;86.70;;;;;;5032041;28;20034;-76
2021/12/21 09:12:47;;;;;;;27.08;13.82;;;5.00;86.80;;;;;;5033173;28;20033;-79
2021/12/21 09:15:14;;;;;;;25.98;13.60;;;5.00;87.60;;;;;;5032194;28;20388;-77
2021/12/21 09:17:41;;;;;;;27.00;14.25;;;5.10;88.40;;;;;;5031743;28;20685;-78
2021/12/21 09:20:08;;;;;;;26.35;14.50;;;5.20;87.30;;;;;;5032693;28;20030;-78
2021/12/21 09:22:36;;;;;;;28.92;14.63;;;5.20;86.80;;;;;;5031144;28;20472;-78
2021/12/21 09:25:02;;;;;;;24.98;13.70;;;5.20;86.30;;;;;;5033185;28;20025;-78
2021/12/21 09:27:28;;;;;;;25.60;14.00;;;5.10;86.10;;;;;;5032812;28;20034;-78
2021/12/21 09:29:54;;;;;;;24.73;14.38;;;5.00;87.30;;;;;;5032547;28;20032;-78
2021/12/21 09:32:19;;;;;;;27.75;15.15;;;5.10;87.10;;;;;;5032437;28;20029;-78
2021/12/21 09:34:46;;;;;;;27.33;15.13;;;5.10;86.80;;;;;;5033121;28;20026;-77
2021/12/21 09:37:19;;;;;;;26.60;14.43;;;5.20;87.00;;;;;;5032062;28;20025;-79
2021/12/21 09:39:49;;;;;;;;;;;5.20;87.40;;;;;;5027722;28;20033;-78
2021/12/21 09:42:18;;;;;;;32.13;16.42;;;5.40;86.60;;;;;;5032530;28;19952;-78
2021/12/21 09:44:44;;;;;;;32.20;16.75;;;5.40;86.10;;;;;;5032868;28;20096;-78
2021/12/21 09:47:10;;;;;;;28.02;15.32;;;5.40;86.10;;;;;;5032089;28;20041;-78
2021/12/21 09:49:37;;;;;;;28.85;16.10;;;5.30;86.80;;;;;;5032745;28;20030;-80
2021/12/21 09:52:05;;;;;;;34.65;16.42;;;5.30;87.00;;;;;;5032472;28;20026;-80
2021/12/21 09:54:33;;;;;;;28.85;16.27;;;5.40;87.40;;;;;;5029278;28;20050;-79
2021/12/21 09:57:00;;;;;;;25.95;15.13;;;5.40;88.00;;;;;;5031770;28;20436;-79
2021/12/21 09:59:26;;;;;;;28.77;16.80;;;5.50;87.20;;;;;;5032274;28;20021;-78
2021/12/21 10:01:52;;;;;;;27.25;16.88;;;5.50;86.70;;;;;;5033360;28;20025;-78
2021/12/21 10:04:18;;;;;;;29.13;16.15;;;5.40;86.60;;;;;;5033188;28;20026;-77
2021/12/21 10:06:49;;;;;;;31.92;18.02;;;5.30;87.00;;;;;;5033217;28;20026;-76
2021/12/21 10:09:16;;;;;;;25.98;15.75;;;5.30;87.70;;;;;;5033304;28;20029;-77
2021/12/21 10:11:44;;;;;;;26.60;15.73;;;5.30;88.10;;;;;;5032933;28;20033;-77
2021/12/21 10:14:10;;;;;;;26.23;16.67;;;5.40;87.50;;;;;;5033104;28;20033;-76
2021/12/21 10:16:36;;;;;;;31.23;17.83;;;5.60;87.10;;;;;;5032992;28;20113;-77
2021/12/21 10:19:04;;;;;;;32.00;17.27;;;5.60;86.60;;;;;;5033282;28;20061;-77
2021/12/21 10:21:30;;;;;;;29.67;17.38;;;5.80;86.80;;;;;;5033086;28;20102;-76
2021/12/21 10:23:55;;;;;;;28.02;16.80;;;5.90;85.80;;;;;;5033037;28;20473;-78
2021/12/21 10:26:28;;;;;;;32.10;18.95;;;5.90;85.20;;;;;;5033138;28;20040;-77
2021/12/21 10:29:00;;;;;;;29.43;17.60;;;5.80;85.90;;;;;;5034680;28;20034;-79
2021/12/21 10:31:27;;;;;;;24.80;17.40;;;5.80;86.00;;;;;;5036567;28;20500;-78
2021/12/21 10:33:54;;;;;;;29.30;16.92;;;5.80;85.40;;;;;;5036821;28;20032;-77
2021/12/21 10:36:20;;;;;;;29.02;17.77;;;5.70;85.60;;;;;;5036432;28;20387;-76
2021/12/21 10:38:51;;;;;;;35.20;18.65;;;5.70;86.10;;;;;;5035738;28;20025;-77
2021/12/21 10:41:16;;;;;;;28.13;17.45;;;5.70;86.20;;;;;;5036756;28;20503;-77
2021/12/21 10:43:43;;;;;;;28.65;18.17;;;5.60;86.50;;;;;;5035741;28;20080;-77
2021/12/21 10:46:09;;;;;;;31.00;18.48;;;5.60;86.80;;;;;;5035679;28;20073;-77
2021/12/21 10:48:37;;;;;;;32.20;18.67;;;5.70;86.50;;;;;;5034417;28;20388;-78
2021/12/21 10:51:14;;;;;;;30.73;19.35;;;5.70;86.20;;;;;;5032041;28;20119;-76
2021/12/21 10:53:48;;;;;;;31.15;17.30;;;5.60;86.80;;;;;;5035039;28;20515;-76
2021/12/21 10:56:16;;;;;;;31.42;18.45;;;5.60;86.50;;;;;;5035974;28;20476;-76
2021/12/21 10:58:43;;;;;;;32.97;18.10;;;5.60;87.20;;;;;;5035149;28;20025;-76
2021/12/21 11:01:13;;;;;;;31.70;18.27;;;5.60;86.30;;;;;;5036400;28;20061;-84
2021/12/21 11:03:52;;;;;;;31.95;17.52;;;5.50;87.40;;;;;;5036236;28;20033;-84
2021/12/21 11:06:35;;;;;;;26.23;15.63;;;5.50;87.70;;;;;;5033093;28;20033;-79
2021/12/21 11:09:04;;;;;;;29.30;16.45;;;5.80;87.70;;;;;;5033508;28;20025;-80
2021/12/21 11:11:44;;;;;;;27.92;15.98;;;6.10;87.00;;;;;;5034824;28;20046;-78
2021/12/21 11:14:14;;;;;;;26.85;16.55;;;6.20;85.40;;;;;;5035368;28;20063;-78
2021/12/21 11:16:45;;;;;;;26.95;14.82;;;6.30;84.40;;;;;;5032006;28;21205;-81
2021/12/21 11:19:12;;;;;;;27.48;15.02;;;6.20;85.10;;;;;;5027289;28;20034;-81
2021/12/21 11:21:39;;;;;;;28.42;16.90;;;6.30;84.60;;;;;;5035136;28;20037;-84
2021/12/21 11:24:07;;;;;;;26.40;15.10;;;6.30;84.40;;;;;;5035316;28;20030;-82
2021/12/21 11:26:34;;;;;;;24.85;15.65;;;6.30;84.40;;;;;;5035101;28;20040;-83
2021/12/21 11:29:04;;;;;;;29.05;15.90;;;6.30;83.60;;;;;;5034665;28;20021;-79
2021/12/21 11:31:31;;;;;;;31.90;16.30;;;6.20;83.60;;;;;;5034935;28;20095;-83
2021/12/21 11:33:59;;;;;;;29.33;16.33;;;6.20;84.50;;;;;;5035167;28;20465;-82
2021/12/21 11:39:10;;;;;;;28.13;15.15;;;6.20;84.80;;;;;;5032976;28;20400;-83
2021/12/21 11:41:37;;;;;;;26.92;15.65;;;6.20;85.30;;;;;;5032918;28;20029;-83
2021/12/21 11:44:21;;;;;;;29.35;16.02;;;6.20;84.90;;;;;;5032829;28;20092;-83
2021/12/21 11:46:54;;;;;;;28.30;14.88;;;6.10;85.70;;;;;;5032941;28;20072;-84
2021/12/21 11:49:30;;;;;;;24.75;15.10;;;6.10;85.90;;;;;;5033625;28;20025;-85
2021/12/21 11:52:13;;;;;;;28.27;14.02;;;6.10;86.10;;;;;;5032914;28;20064;-86
2021/12/21 11:54:52;;;;;;;24.65;15.23;;;6.20;85.30;;;;;;5021311;28;20041;-88
2021/12/21 11:57:21;;;;;;;25.52;14.95;;;6.20;84.90;;;;;;5034619;28;20508;-80
2021/12/21 11:59:48;;;;;;;25.40;14.52;;;6.20;85.50;;;;;;5034110;28;20507;-81
2021/12/21 12:02:14;;;;;;;23.20;14.32;;;6.20;85.50;;;;;;5034452;28;20034;-81
2021/12/21 12:04:40;;;;;;;26.15;15.57;;;6.20;85.00;;;;;;5033408;28;20384;-76
2021/12/21 12:07:16;;;;;;;30.30;15.65;;;6.30;85.10;;;;;;5034424;28;20030;-78
2021/12/21 12:09:42;;;;;;;23.23;14.55;;;6.30;85.30;;;;;;5033545;28;20109;-75
2021/12/21 12:12:15;;;;;;;22.95;14.70;;;6.30;85.40;;;;;;5032875;28;20105;-76
2021/12/21 12:14:45;;;;;;;25.10;13.65;;;6.40;85.40;;;;;;5033567;28;20029;-80
2021/12/21 12:17:17;;;;;;;22.67;14.30;;;6.40;85.10;;;;;;5033645;28;20057;-78
2021/12/21 12:19:55;;;;;;;26.55;15.25;;;6.40;84.00;;;;;;5033445;28;20029;-79
2021/12/21 12:22:35;;;;;;;27.33;14.35;;;6.40;85.10;;;;;;5033827;28;20037;-78
2021/12/21 12:25:02;;;;;;;22.58;13.07;;;6.50;85.00;;;;;;5032010;28;20053;-79
2021/12/21 12:27:30;;;;;;;22.75;13.32;;;6.60;84.50;;;;;;5033549;28;20037;-80
2021/12/21 12:30:01;;;;;;;24.33;13.05;;;6.80;84.30;;;;;;5032838;28;20060;-78
2021/12/21 12:32:38;;;;;;;23.08;12.32;;;6.90;82.30;;;;;;5034117;28;20025;-78
2021/12/21 12:35:11;;;;;;;19.90;12.15;;;6.90;81.10;;;;;;5033016;28;20025;-78
2021/12/21 12:37:52;;;;;;;30.80;14.75;;;7.00;81.40;;;;;;5023750;28;20030;-79
2021/12/21 12:40:23;;;;;;;27.55;15.02;;;7.00;80.30;;;;;;5033780;28;20044;-80
2021/12/21 12:43:03;;;;;;;23.17;14.70;;;7.00;81.00;;;;;;5018503;28;20037;-79
2021/12/21 12:45:45;;;;;;;26.77;14.43;;;7.20;80.20;;;;;;5033546;28;20033;-78
2021/12/21 12:48:22;;;;;;;29.02;14.60;;;7.30;79.60;;;;;;5034262;28;20026;-79
2021/12/21 12:50:49;;;;;;;30.85;15.88;;;7.40;79.10;;;;;;5033017;28;20247;-81
2021/12/21 12:53:15;;;;;;;28.25;17.05;;;7.50;78.80;;;;;;5033126;28;20078;-79
2021/12/21 12:55:57;;;;;;;29.20;15.13;;;7.60;77.80;;;;;;5033503;28;20086;-82
2021/12/21 12:58:25;;;;;;;30.08;17.45;;;7.60;77.60;;;;;;5033089;28;20041;-83
2021/12/21 13:00:56;;;;;;;28.95;15.27;;;7.70;77.20;;;;;;5033523;28;20025;-83
2021/12/21 13:03:32;;;;;;;24.10;14.75;;;7.70;76.30;;;;;;5033154;28;20033;-79
2021/12/21 13:05:59;;;;;;;25.70;12.75;;;7.70;77.00;;;;;;5033346;28;20113;-81
2021/12/21 13:08:26;;;;;;;22.38;13.63;;;7.70;75.70;;;;;;5033383;28;20032;-82
2021/12/21 13:10:57;;;;;;;25.17;11.52;;;7.70;76.00;;;;;;5033031;28;20098;-80
2021/12/21 13:13:35;;;;;;;16.90;8.85;;;7.70;76.90;;;;;;5031645;28;20025;-79
2021/12/21 13:16:08;;;;;;;18.88;9.18;;;7.90;76.00;;;;;;5033181;28;20674;-77
2021/12/21 13:18:42;;;;;;;11.63;6.28;;;8.10;77.70;;;;;;5032947;28;20030;-80
2021/12/21 13:21:19;;;;;;;14.15;6.50;;;8.40;80.00;;;;;;5032943;28;20048;-80
2021/12/21 13:23:47;;;;;;;14.07;6.32;;;8.60;81.90;;;;;;5033453;28;20050;-80
2021/12/21 13:26:13;;;;;;;11.40;4.68;;;8.90;85.30;;;;;;5033242;28;20086;-78
2021/12/21 13:28:47;;;;;;;13.70;5.47;;;9.20;89.80;;;;;;5032986;28;20021;-77
2021/12/21 13:31:16;;;;;;;13.55;7.07;;;9.60;87.80;;;;;;5032640;28;20080;-77
2021/12/21 13:33:42;;;;;;;10.52;5.85;;;9.60;79.30;;;;;;5032729;28;20029;-78
2021/12/21 13:36:08;;;;;;;13.48;5.63;;;9.50;76.40;;;;;;5032867;28;20049;-82
2021/12/21 13:38:36;;;;;;;13.52;5.78;;;9.40;77.00;;;;;;5032747;28;20025;-83
2021/12/21 13:41:15;;;;;;;12.35;5.22;;;9.50;79.00;;;;;;5032030;28;20033;-79
2021/12/21 13:43:54;;;;;;;15.95;5.90;;;9.60;80.80;;;;;;5030864;28;20029;-78
2021/12/21 13:46:20;;;;;;;13.93;6.32;;;9.60;76.20;;;;;;5027786;28;20026;-76
2021/12/21 13:48:55;;;;;;;13.38;6.30;;;9.50;72.20;;;;;;5031573;28;20100;-76
2021/12/21 13:51:22;;;;;;;11.75;6.28;;;9.30;71.20;;;;;;5030923;28;20040;-77
2021/12/21 13:53:58;;;;;;;11.13;6.38;;;9.00;69.90;;;;;;5030760;28;20493;-77
2021/12/21 13:56:26;;;;;;;12.82;5.93;;;8.80;70.90;;;;;;5032083;28;20022;-80